Time;durP1;ratioP1;P1;durP2;ratioP2;P2;SDS_P1;SDS_P2;PMS_P1;PMS_P2;Temp;Humidity;BMP_temperature;BMP_pressure;BME280_temperature;BME280_humidity;BME280_pressure;Samples;Min_cycle;Max_cycle;Signal;HPM_P1;HPM_P2
2022/02/25 00:01:43;;;;;;;2.03;0.90;;;;;;;4.56;79.37;98994.16;5017287;27;103323;-70
2022/02/25 00:04:11;;;;;;;1.50;0.97;;;;;;;4.58;79.09;99002.78;5010909;27;103255;-70
2022/02/25 00:06:39;;;;;;;3.00;0.87;;;;;;;4.52;78.79;99003.91;5014563;27;102631;-70
2022/02/25 00:09:08;;;;;;;1.87;0.87;;;;;;;4.54;78.58;98998.63;5016120;27;104910;-70
2022/02/25 00:11:36;;;;;;;2.53;0.87;;;;;;;4.59;79.06;99001.88;5003715;27;104277;-70
2022/02/25 00:14:04;;;;;;;2.10;1.03;;;;;;;4.61;78.34;99003.53;5020487;27;102598;-70
2022/02/25 00:16:38;;;;;;;3.27;1.10;;;;;;;4.59;78.58;99014.97;5015162;27;103838;-70
2022/02/25 00:19:06;;;;;;;2.40;0.90;;;;;;;4.49;79.61;99024.16;5012892;27;102660;-70
2022/02/25 00:21:34;;;;;;;2.90;0.90;;;;;;;4.40;79.25;99024.53;5010601;27;103189;-63
2022/02/25 00:24:03;;;;;;;2.73;1.07;;;;;;;4.37;79.49;99022.91;5013764;27;103201;-63
2022/02/25 00:26:32;;;;;;;3.47;1.00;;;;;;;4.42;80.31;99025.31;5012699;27;102678;-63
2022/02/25 00:29:04;;;;;;;3.20;1.10;;;;;;;4.40;78.91;99035.00;5012076;27;102803;-64
2022/02/25 00:31:32;;;;;;;2.43;0.93;;;;;;;4.26;79.68;99032.09;5012819;27;103379;-63
2022/02/25 00:34:00;;;;;;;1.60;0.77;;;;;;;4.25;79.93;99030.41;5013773;27;103207;-63
2022/02/25 00:36:28;;;;;;;1.90;1.10;;;;;;;4.06;80.04;99052.09;5001149;27;102808;-63
2022/02/25 00:38:56;;;;;;;1.87;1.27;;;;;;;4.06;80.59;99061.69;5017153;27;104190;-63
2022/02/25 00:41:24;;;;;;;2.77;1.03;;;;;;;4.06;80.21;99059.94;5017814;27;103001;-63
2022/02/25 00:43:54;;;;;;;3.00;1.00;;;;;;;4.25;79.75;99072.25;5010374;27;103221;-63
2022/02/25 00:46:22;;;;;;;3.70;1.30;;;;;;;4.29;78.64;99069.44;5012858;27;102749;-63
2022/02/25 00:48:50;;;;;;;2.00;1.20;;;;;;;4.09;79.56;99083.34;5009571;27;102731;-63
2022/02/25 00:51:18;;;;;;;3.50;1.20;;;;;;;4.06;79.49;99078.22;5011475;27;103235;-63
2022/02/25 00:53:46;;;;;;;2.60;1.20;;;;;;;4.08;79.82;99092.09;5011470;27;103188;-63
2022/02/25 00:56:14;;;;;;;2.87;1.30;;;;;;;4.15;79.86;99086.63;5013446;27;102670;-63
2022/02/25 00:58:42;;;;;;;2.40;1.30;;;;;;;4.15;79.65;99087.47;5016719;27;104114;-64
2022/02/25 01:01:11;;;;;;;1.40;0.90;;;;;;;4.01;80.31;99093.22;5010914;27;103577;-64
2022/02/25 01:03:39;;;;;;;1.73;1.00;;;;;;;3.90;80.66;99100.63;5020171;27;104655;-63
2022/02/25 01:06:07;;;;;;;2.67;1.50;;;;;;;3.88;80.56;99089.41;5019023;27;102586;-63
2022/02/25 01:08:35;;;;;;;1.87;1.27;;;;;;;3.90;80.87;99090.19;5021856;27;102733;-63
2022/02/25 01:11:03;;;;;;;1.67;1.13;;;;;;;3.95;80.30;99090.88;5020102;27;103181;-63
2022/02/25 01:13:31;;;;;;;1.40;1.20;;;;;;;4.02;80.83;99092.31;5015766;27;103196;-63
2022/02/25 01:16:00;;;;;;;2.23;1.50;;;;;;;3.97;80.67;99093.41;5018470;27;103661;-64
2022/02/25 01:18:29;;;;;;;2.00;1.30;;;;;;;3.98;80.90;99111.69;5018798;27;103092;-64
2022/02/25 01:20:57;;;;;;;2.33;1.20;;;;;;;3.85;81.43;99109.56;5011826;27;103937;-63
2022/02/25 01:23:25;;;;;;;1.53;1.40;;;;;;;3.82;81.26;99120.16;5013064;27;103285;-64
2022/02/25 01:25:53;;;;;;;3.20;1.33;;;;;;;3.81;80.90;99119.31;5013756;27;102786;-64
2022/02/25 01:28:21;;;;;;;3.27;1.33;;;;;;;3.72;81.10;99119.66;5011931;27;102827;-64
2022/02/25 01:30:49;;;;;;;4.63;1.60;;;;;;;3.71;80.59;99122.31;5010833;27;103723;-63
2022/02/25 01:33:17;;;;;;;3.17;2.00;;;;;;;3.59;79.59;99118.44;5012019;27;103883;-63
2022/02/25 01:35:46;;;;;;;2.47;1.20;;;;;;;3.57;78.77;99125.47;5010457;27;102739;-64
2022/02/25 01:38:14;;;;;;;4.70;1.30;;;;;;;3.47;79.13;99130.19;5010220;27;103675;-63
2022/02/25 01:40:43;;;;;;;2.57;1.00;;;;;;;3.46;79.03;99127.63;5013177;27;104258;-64
2022/02/25 01:43:11;;;;;;;1.40;1.10;;;;;;;3.50;79.54;99135.31;5012722;27;103254;-64
2022/02/25 01:45:39;;;;;;;3.10;1.33;;;;;;;3.51;79.80;99130.91;5012980;27;102842;-63
2022/02/25 01:48:07;;;;;;;2.23;1.20;;;;;;;3.42;79.06;99145.16;5014785;27;103703;-64
2022/02/25 01:50:37;;;;;;;2.50;1.50;;;;;;;3.48;79.99;99141.50;5010757;27;104481;-63
2022/02/25 01:53:08;;;;;;;3.17;1.40;;;;;;;3.40;79.85;99140.91;5010807;27;103133;-64
2022/02/25 01:55:38;;;;;;;3.40;0.90;;;;;;;3.43;79.57;99149.47;5013285;27;102674;-63
2022/02/25 01:58:07;;;;;;;4.97;1.30;;;;;;;3.46;80.41;99151.13;5011946;27;102954;-63
2022/02/25 02:00:36;;;;;;;3.80;1.17;;;;;;;3.45;79.80;99152.06;5008850;27;103765;-64
2022/02/25 02:03:06;;;;;;;2.27;1.30;;;;;;;3.31;79.68;99154.31;5011463;27;103527;-65
2022/02/25 02:05:35;;;;;;;2.70;1.20;;;;;;;3.35;79.72;99161.13;5012688;27;102967;-64
2022/02/25 02:08:07;;;;;;;1.23;0.97;;;;;;;3.23;79.42;99156.34;5014671;27;102692;-64
2022/02/25 02:10:35;;;;;;;1.77;1.10;;;;;;;3.17;79.43;99161.78;5009446;27;104110;-64
2022/02/25 02:13:03;;;;;;;4.53;1.00;;;;;;;3.33;79.46;99162.94;5010999;27;104461;-65
2022/02/25 02:15:31;;;;;;;2.70;1.20;;;;;;;3.23;79.28;99166.78;5010326;27;102700;-64
2022/02/25 02:17:59;;;;;;;3.23;0.90;;;;;;;3.22;79.62;99165.09;5016608;27;103922;-71
2022/02/25 02:20:27;;;;;;;2.07;1.23;;;;;;;3.15;78.94;99166.19;5008097;27;103217;-71
2022/02/25 02:22:57;;;;;;;3.43;1.10;;;;;;;2.96;79.64;99167.75;5010477;27;104251;-70
2022/02/25 02:25:25;;;;;;;3.37;1.00;;;;;;;3.02;78.74;99172.75;5009563;27;103762;-70
2022/02/25 02:30:39;;;;;;;2.47;0.97;;;;;;;2.97;78.71;99182.50;5010161;27;103196;-70
2022/02/25 02:33:06;;;;;;;3.17;1.07;;;;;;;2.98;78.48;99181.56;5013154;27;103186;-70
2022/02/25 02:35:35;;;;;;;5.53;1.40;;;;;;;3.11;79.14;99172.44;5013353;27;102682;-70
2022/02/25 02:38:04;;;;;;;2.57;1.13;;;;;;;3.06;78.75;99180.41;5010074;27;102754;-70
2022/02/25 02:40:32;;;;;;;3.77;1.47;;;;;;;3.13;78.08;99196.72;5008474;27;103409;-70
2022/02/25 02:43:01;;;;;;;2.73;1.10;;;;;;;3.10;78.20;99202.06;5012347;27;103281;-70
2022/02/25 02:45:29;;;;;;;2.70;1.30;;;;;;;3.09;77.86;99200.38;5009628;27;102693;-70
2022/02/25 02:47:57;;;;;;;2.37;1.00;;;;;;;2.99;77.64;99198.97;5009144;27;104014;-70
2022/02/25 02:50:25;;;;;;;2.23;1.00;;;;;;;2.91;77.17;99202.69;5010772;27;103951;-70
2022/02/25 02:52:53;;;;;;;2.80;0.97;;;;;;;2.94;78.19;99206.97;5015364;27;103206;-70
2022/02/25 02:55:23;;;;;;;2.43;1.00;;;;;;;2.98;78.22;99207.69;5013957;27;102740;-71
2022/02/25 02:57:52;;;;;;;2.37;1.17;;;;;;;2.98;77.63;99208.53;5013907;27;103755;-71
2022/02/25 03:00:20;;;;;;;3.60;1.00;;;;;;;3.01;77.81;99212.81;5012399;27;104335;-70
2022/02/25 03:02:48;;;;;;;5.10;1.20;;;;;;;3.05;77.35;99219.63;5005205;27;103361;-70
2022/02/25 03:05:18;;;;;;;6.67;1.27;;;;;;;3.08;78.33;99214.31;5015172;27;102704;-70
2022/02/25 03:07:47;;;;;;;2.43;0.90;;;;;;;3.18;77.31;99221.78;5013771;27;102910;-71
2022/02/25 03:10:16;;;;;;;2.33;0.90;;;;;;;3.23;77.56;99224.25;5012198;27;104000;-70
2022/02/25 03:12:46;;;;;;;3.07;1.23;;;;;;;3.16;77.68;99214.91;5014222;27;103281;-70
2022/02/25 03:15:15;;;;;;;4.97;1.20;;;;;;;3.10;77.39;99218.56;5017386;27;102677;-70
2022/02/25 03:17:43;;;;;;;3.77;1.10;;;;;;;2.94;77.73;99217.41;5013938;27;103958;-71
2022/02/25 03:20:15;;;;;;;3.87;1.27;;;;;;;3.15;77.68;99221.03;5013624;27;103229;-70
2022/02/25 03:22:45;;;;;;;5.40;1.50;;;;;;;3.21;77.20;99228.66;5014420;27;102947;-70
2022/02/25 03:25:16;;;;;;;4.33;1.10;;;;;;;3.16;77.31;99230.56;5013374;27;103630;-71
2022/02/25 03:27:46;;;;;;;2.70;1.17;;;;;;;2.90;78.28;99237.53;5013686;27;102770;-70
2022/02/25 03:30:16;;;;;;;5.70;1.10;;;;;;;2.94;78.78;99233.06;5013270;27;103249;-70
2022/02/25 03:32:44;;;;;;;6.10;1.30;;;;;;;2.71;79.09;99233.81;5012607;27;103330;-64
2022/02/25 03:35:14;;;;;;;3.97;1.43;;;;;;;2.76;78.68;99234.50;5012174;27;102649;-65
2022/02/25 03:37:42;;;;;;;3.53;1.10;;;;;;;2.85;78.89;99234.22;5016779;27;102722;-64
2022/02/25 03:40:11;;;;;;;2.70;1.10;;;;;;;2.85;79.27;99239.44;5013486;27;103945;-64
2022/02/25 03:42:40;;;;;;;5.47;1.40;;;;;;;2.85;79.43;99235.97;5012002;27;105673;-64
2022/02/25 03:45:11;;;;;;;7.50;1.50;;;;;;;2.93;78.96;99233.94;5016932;27;104581;-64
2022/02/25 03:47:42;;;;;;;3.73;1.47;;;;;;;2.77;79.71;99246.66;5017530;27;103226;-64
2022/02/25 03:50:11;;;;;;;3.63;1.00;;;;;;;2.80;79.77;99254.41;5019841;27;103950;-64
2022/02/25 03:52:39;;;;;;;1.53;0.70;;;;;;;2.89;79.14;99255.84;5015221;27;103203;-64
2022/02/25 03:55:08;;;;;;;4.00;1.17;;;;;;;2.99;79.15;99252.03;5012366;27;102708;-64
2022/02/25 03:57:37;;;;;;;7.50;1.37;;;;;;;3.05;78.64;99250.97;5013669;27;102723;-64
2022/02/25 04:00:08;;;;;;;3.00;1.30;;;;;;;3.03;78.70;99256.25;5021381;27;103267;-64
2022/02/25 04:02:46;;;;;;;4.17;1.30;;;;;;;2.74;79.40;99256.34;5013082;27;103536;-64
2022/02/25 04:05:14;;;;;;;6.93;1.60;;;;;;;2.70;79.67;99263.41;5012934;27;102648;-64
2022/02/25 04:07:46;;;;;;;5.10;1.47;;;;;;;2.81;79.72;99263.06;5013176;27;103040;-65
2022/02/25 04:10:13;;;;;;;2.57;1.33;;;;;;;2.70;80.23;99271.22;5011129;27;104139;-64
2022/02/25 04:12:44;;;;;;;5.00;1.20;;;;;;;2.77;80.56;99267.53;5015470;27;103238;-64
2022/02/25 04:15:16;;;;;;;4.27;1.10;;;;;;;2.69;80.13;99273.91;5010345;27;102945;-64
2022/02/25 04:17:46;;;;;;;4.87;1.40;;;;;;;2.58;79.95;99279.47;5013631;27;104131;-64
2022/02/25 04:20:15;;;;;;;4.00;0.80;;;;;;;2.76;80.79;99286.69;5021139;27;104164;-64
2022/02/25 04:22:45;;;;;;;2.13;1.03;;;;;;;2.82;79.94;99280.44;5011880;27;103197;-64
2022/02/25 04:25:14;;;;;;;4.03;1.00;;;;;;;2.89;79.57;99288.00;5013313;27;104163;-64
2022/02/25 04:27:42;;;;;;;6.87;1.60;;;;;;;2.91;78.80;99285.34;5015048;27;102719;-64
2022/02/25 04:30:11;;;;;;;5.37;1.67;;;;;;;2.83;79.90;99287.38;5014127;27;103229;-64
2022/02/25 04:32:38;;;;;;;5.93;1.23;;;;;;;2.89;80.11;99293.22;5012489;27;103162;-64
2022/02/25 04:35:09;;;;;;;3.83;1.00;;;;;;;3.04;79.85;99298.84;5012350;27;103328;-64
2022/02/25 04:37:37;;;;;;;2.67;1.07;;;;;;;3.10;79.35;99296.03;5011077;27;104242;-64
2022/02/25 04:40:07;;;;;;;4.03;1.13;;;;;;;3.17;79.51;99293.16;5013079;27;104290;-64
2022/02/25 04:42:36;;;;;;;4.70;1.10;;;;;;;3.15;79.78;99305.44;5013244;27;103282;-65
2022/02/25 04:45:05;;;;;;;2.70;1.03;;;;;;;3.12;79.19;99307.28;5002797;27;102717;-67
2022/02/25 04:47:34;;;;;;;6.33;1.57;;;;;;;3.17;79.23;99308.00;5009447;27;102745;-71
2022/02/25 04:50:03;;;;;;;3.83;1.33;;;;;;;3.12;78.93;99299.44;5009119;27;104293;-72
2022/02/25 04:52:32;;;;;;;2.67;1.00;;;;;;;3.18;77.97;99307.09;5010190;27;103293;-72
2022/02/25 04:55:00;;;;;;;2.63;0.90;;;;;;;3.05;78.67;99313.63;5024722;27;102655;-72
2022/02/25 04:57:28;;;;;;;4.27;1.30;;;;;;;3.03;78.62;99307.59;5015182;27;103809;-65
2022/02/25 04:59:58;;;;;;;6.83;1.33;;;;;;;2.96;78.93;99314.78;5011865;27;103200;-72
2022/02/25 05:02:28;;;;;;;7.50;1.57;;;;;;;2.91;78.63;99312.31;5015027;27;103232;-72
2022/02/25 05:04:55;;;;;;;3.27;1.00;;;;;;;2.97;78.53;99316.50;5013958;27;102920;-73
2022/02/25 05:07:25;;;;;;;1.70;1.10;;;;;;;3.08;79.15;99316.13;5013335;27;103980;-72
2022/02/25 05:09:55;;;;;;;4.20;1.20;;;;;;;3.14;78.70;99318.56;5012048;27;103326;-72
2022/02/25 05:12:26;;;;;;;3.40;1.30;;;;;;;3.24;78.00;99323.41;5010761;27;103460;-65
2022/02/25 05:20:30;;;;;;;3.63;1.20;;;;;;;3.35;78.43;99333.50;5013100;27;103220;-64
2022/02/25 05:23:01;;;;;;;4.67;1.27;;;;;;;3.41;78.15;99333.31;5013255;27;104164;-64
2022/02/25 05:25:32;;;;;;;3.70;1.13;;;;;;;3.42;77.52;99335.03;5001720;27;102610;-69
2022/02/25 05:28:03;;;;;;;3.93;1.20;;;;;;;3.48;77.83;99340.03;5012487;27;103297;-69
2022/02/25 05:30:31;;;;;;;2.17;0.90;;;;;;;3.56;77.82;99343.25;5010242;27;104230;-64
2022/02/25 05:32:59;;;;;;;3.87;1.10;;;;;;;3.54;77.55;99339.81;5009996;27;103194;-68
2022/02/25 05:35:28;;;;;;;4.57;1.50;;;;;;;3.48;77.26;99345.28;4997630;27;103612;-64
2022/02/25 05:38:00;;;;;;;3.13;1.00;;;;;;;3.54;76.53;99355.50;5008114;27;103972;-64
2022/02/25 05:40:29;;;;;;;6.53;1.60;;;;;;;3.43;76.54;99349.78;5014064;27;104242;-64
2022/02/25 05:42:59;;;;;;;8.27;1.50;;;;;;;3.39;76.00;99359.50;5014082;27;103246;-64
2022/02/25 05:45:29;;;;;;;4.53;1.20;;;;;;;3.49;77.14;99357.41;5013455;27;102609;-64
2022/02/25 05:47:57;;;;;;;2.97;1.10;;;;;;;3.52;76.66;99365.16;5008134;27;104056;-64
2022/02/25 05:50:27;;;;;;;9.13;1.63;;;;;;;3.43;76.78;99366.31;5008077;27;104491;-64
2022/02/25 05:52:55;;;;;;;3.57;1.33;;;;;;;3.48;77.62;99371.41;5012932;27;103209;-70
2022/02/25 05:55:23;;;;;;;5.03;1.50;;;;;;;3.47;77.32;99377.50;5008319;27;102921;-64
2022/02/25 05:57:55;;;;;;;3.33;1.07;;;;;;;3.59;76.98;99384.97;5010999;27;102884;-64
2022/02/25 06:00:23;;;;;;;4.73;1.43;;;;;;;3.49;76.66;99388.75;5012181;27;103244;-70
2022/02/25 06:02:52;;;;;;;6.50;2.13;;;;;;;3.44;77.16;99394.16;5012058;27;102966;-65
2022/02/25 06:05:20;;;;;;;3.63;1.10;;;;;;;3.53;77.15;99398.22;5012895;27;102666;-70
2022/02/25 06:07:49;;;;;;;3.60;1.30;;;;;;;3.50;77.32;99400.94;5014439;27;104157;-70
2022/02/25 06:10:17;;;;;;;3.33;1.20;;;;;;;3.50;77.28;99393.09;5016805;27;103180;-65
2022/02/25 06:12:45;;;;;;;8.13;1.43;;;;;;;3.44;77.44;99402.00;5015072;27;103201;-65
2022/02/25 06:15:15;;;;;;;4.87;1.67;;;;;;;3.35;77.84;99396.19;5020058;27;102617;-65
2022/02/25 06:17:44;;;;;;;5.73;1.50;;;;;;;3.06;78.19;99385.84;5018519;27;103932;-65
2022/02/25 06:20:12;;;;;;;4.33;1.50;;;;;;;3.04;78.37;99396.31;5018062;27;103714;-65
2022/02/25 06:22:41;;;;;;;3.93;1.40;;;;;;;3.13;78.16;99395.16;5008957;27;103220;-65
2022/02/25 06:25:10;;;;;;;5.80;1.37;;;;;;;3.00;77.94;99394.72;5014808;27;102634;-65
2022/02/25 06:27:39;;;;;;;5.77;1.63;;;;;;;2.98;77.95;99406.06;5016332;27;102759;-65
2022/02/25 06:30:09;;;;;;;4.50;1.63;;;;;;;3.06;77.67;99417.16;5014433;27;103244;-65
2022/02/25 06:32:39;;;;;;;2.80;1.40;;;;;;;2.95;77.18;99412.25;5013405;27;103302;-64
2022/02/25 06:35:08;;;;;;;5.13;1.40;;;;;;;2.92;78.16;99418.41;5015952;27;102900;-64
2022/02/25 06:37:39;;;;;;;2.80;1.40;;;;;;;2.93;77.67;99417.53;5008845;27;102843;-64
2022/02/25 06:40:09;;;;;;;7.43;2.07;;;;;;;3.05;77.69;99425.88;5018317;27;104315;-71
2022/02/25 06:42:37;;;;;;;4.37;1.50;;;;;;;3.10;78.20;99421.38;5019381;27;103184;-66
2022/02/25 06:45:14;;;;;;;4.83;1.33;;;;;;;3.17;77.42;99422.91;5010305;27;103198;-70
2022/02/25 06:47:44;;;;;;;4.10;1.40;;;;;;;3.22;77.65;99423.63;5020302;27;104354;-65
2022/02/25 06:50:12;;;;;;;2.43;1.10;;;;;;;3.25;77.16;99426.13;5017383;27;103259;-65
2022/02/25 06:52:41;;;;;;;5.33;1.83;;;;;;;3.31;76.95;99431.16;5019628;27;103195;-65
2022/02/25 06:55:13;;;;;;;4.20;1.93;;;;;;;3.39;76.65;99429.16;5019365;27;102720;-64
2022/02/25 06:58:03;;;;;;;4.33;1.80;;;;;;;3.35;77.41;99432.75;5021970;27;102693;-71
2022/02/25 07:00:31;;;;;;;5.67;2.10;;;;;;;3.37;77.74;99430.94;5017170;27;103948;-69
2022/02/25 07:03:01;;;;;;;5.03;1.70;;;;;;;3.53;76.98;99441.78;5015989;27;104431;-69
2022/02/25 07:05:30;;;;;;;5.67;2.47;;;;;;;3.56;75.92;99439.94;5017294;27;102611;-64
2022/02/25 07:07:57;;;;;;;5.50;2.00;;;;;;;3.51;76.71;99439.19;5015150;27;102926;-71
2022/02/25 07:10:32;;;;;;;5.90;2.53;;;;;;;3.69;76.27;99441.22;5014893;27;103992;-71
2022/02/25 07:13:01;;;;;;;6.33;2.03;;;;;;;3.62;76.26;99442.31;5017057;27;103225;-70
2022/02/25 07:15:30;;;;;;;8.80;2.57;;;;;;;3.58;75.72;99445.94;5019079;27;102687;-70
2022/02/25 07:17:59;;;;;;;8.60;2.30;;;;;;;3.83;76.17;99446.84;5018784;27;102744;-71
2022/02/25 07:20:29;;;;;;;3.80;1.57;;;;;;;4.08;75.21;99439.88;5016783;27;104187;-64
2022/02/25 07:22:59;;;;;;;4.90;1.50;;;;;;;4.16;74.30;99444.84;5011186;27;103194;-64
2022/02/25 07:25:27;;;;;;;5.53;1.97;;;;;;;4.25;73.92;99447.16;5004680;27;102764;-64
2022/02/25 07:27:56;;;;;;;7.67;2.20;;;;;;;4.62;73.51;99449.31;5015856;27;102696;-64
2022/02/25 07:30:28;;;;;;;5.73;1.87;;;;;;;4.80;72.94;99448.59;5018658;27;103319;-64
2022/02/25 07:32:56;;;;;;;5.13;1.80;;;;;;;5.04;72.80;99458.19;5015863;27;103392;-69
2022/02/25 07:35:24;;;;;;;3.90;1.63;;;;;;;4.98;71.42;99453.16;5016113;27;102729;-70
2022/02/25 07:37:55;;;;;;;5.30;2.03;;;;;;;5.00;70.86;99461.81;5020376;27;102552;-70
2022/02/25 07:40:24;;;;;;;6.70;2.30;;;;;;;5.18;70.51;99455.03;5020846;27;104200;-70
2022/02/25 07:42:53;;;;;;;4.73;1.40;;;;;;;5.37;69.27;99455.16;5024323;27;103204;-70
2022/02/25 07:45:25;;;;;;;3.63;1.57;;;;;;;5.35;68.31;99462.22;5021314;27;102655;-69
2022/02/25 07:47:53;;;;;;;3.30;1.97;;;;;;;5.53;68.18;99461.50;5021249;27;103117;-64
2022/02/25 07:50:21;;;;;;;8.00;1.87;;;;;;;5.77;67.66;99468.38;5021627;27;103218;-64
2022/02/25 07:52:49;;;;;;;6.27;1.57;;;;;;;5.80;66.94;99465.63;5016368;27;103240;-69
2022/02/25 07:55:18;;;;;;;4.83;1.57;;;;;;;6.18;66.03;99464.06;5017911;27;103829;-70
2022/02/25 07:57:47;;;;;;;9.57;1.90;;;;;;;6.25;65.03;99466.38;5021598;27;102935;-64
2022/02/25 08:00:24;;;;;;;3.17;1.37;;;;;;;6.03;65.52;99475.22;5020287;27;103805;-64
2022/02/25 08:02:54;;;;;;;4.40;1.80;;;;;;;6.26;64.30;99475.09;5015717;27;103570;-64
2022/02/25 08:05:23;;;;;;;4.07;1.50;;;;;;;6.35;64.48;99472.06;5021045;27;102629;-64
2022/02/25 08:07:52;;;;;;;4.43;1.80;;;;;;;6.34;63.89;99479.06;5020441;27;104090;-64
2022/02/25 08:10:22;;;;;;;5.10;1.87;;;;;;;6.62;63.54;99473.50;5019656;27;104207;-64
2022/02/25 08:12:50;;;;;;;9.07;1.97;;;;;;;6.43;64.00;99471.75;5025412;27;103238;-64
2022/02/25 08:15:18;;;;;;;9.00;1.30;;;;;;;6.75;63.69;99476.44;5020115;27;103704;-70
2022/02/25 08:17:47;;;;;;;5.83;1.70;;;;;;;6.80;61.91;99471.81;5021596;27;103933;-70
2022/02/25 08:20:16;;;;;;;6.13;1.77;;;;;;;6.79;62.69;99470.13;5022473;27;103413;-65
2022/02/25 08:22:44;;;;;;;4.67;1.43;;;;;;;6.43;63.67;99473.44;5020818;27;103199;-70
2022/02/25 08:25:12;;;;;;;3.37;1.53;;;;;;;6.25;63.87;99474.25;5019764;27;102652;-70
2022/02/25 08:27:43;;;;;;;9.00;1.43;;;;;;;7.05;62.38;99480.28;5021271;27;104086;-65
2022/02/25 08:30:16;;;;;;;5.27;1.40;;;;;;;7.56;60.84;99472.59;5016535;27;103246;-65
2022/02/25 08:32:46;;;;;;;4.97;1.50;;;;;;;7.06;58.97;99474.13;5019385;27;103204;-70
2022/02/25 08:35:15;;;;;;;5.00;1.20;;;;;;;7.00;59.54;99466.53;5011033;27;102759;-65
2022/02/25 08:37:44;;;;;;;5.23;1.77;;;;;;;7.27;59.46;99459.97;5020622;27;104193;-64
2022/02/25 08:40:14;;;;;;;6.67;1.23;;;;;;;7.22;59.47;99459.34;5019655;27;103922;-64
2022/02/25 08:42:43;;;;;;;6.30;1.70;;;;;;;7.39;58.89;99456.78;5020785;27;103226;-64
2022/02/25 08:45:13;;;;;;;5.17;1.60;;;;;;;7.37;58.80;99458.63;5019962;27;102587;-63
2022/02/25 08:47:45;;;;;;;7.53;1.67;;;;;;;7.40;59.24;99463.75;5023580;27;104012;-64
2022/02/25 08:50:16;;;;;;;7.00;1.47;;;;;;;7.49;58.52;99465.09;5021076;27;103636;-64
2022/02/25 08:52:45;;;;;;;3.93;1.40;;;;;;;7.68;58.34;99459.78;5025317;27;103196;-64
2022/02/25 08:55:13;;;;;;;5.97;1.87;;;;;;;7.99;57.79;99465.25;5022145;27;102553;-69
2022/02/25 08:57:44;;;;;;;6.37;1.73;;;;;;;8.07;57.14;99453.41;5025452;27;103564;-69
2022/02/25 09:00:15;;;;;;;10.90;2.07;;;;;;;8.32;57.16;99450.41;5017945;27;103207;-69
2022/02/25 09:02:43;;;;;;;4.73;1.67;;;;;;;8.50;55.90;99453.88;5019515;27;103308;-70
2022/02/25 09:05:12;;;;;;;4.87;1.17;;;;;;;8.30;55.71;99454.91;5021884;27;102618;-71
2022/02/25 09:07:44;;;;;;;3.90;1.63;;;;;;;8.42;55.88;99456.91;5021209;27;102625;-72
2022/02/25 09:10:15;;;;;;;4.70;1.47;;;;;;;8.80;55.13;99460.16;5022387;27;103198;-71
2022/02/25 09:12:47;;;;;;;5.57;1.97;;;;;;;8.63;54.80;99460.22;5018241;27;104302;-70
2022/02/25 09:15:18;;;;;;;8.40;1.70;;;;;;;8.79;55.22;99454.97;5020780;27;102804;-70
2022/02/25 09:17:46;;;;;;;4.53;1.37;;;;;;;8.73;55.04;99454.38;5020576;27;102885;-70
2022/02/25 09:20:14;;;;;;;5.47;1.67;;;;;;;8.70;54.72;99457.16;5018598;27;103617;-71
2022/02/25 09:22:42;;;;;;;6.57;1.77;;;;;;;8.58;54.62;99463.09;5022535;27;103179;-70
2022/02/25 09:25:10;;;;;;;6.70;1.80;;;;;;;8.85;54.49;99465.19;5019715;27;102602;-70
2022/02/25 09:27:39;;;;;;;3.77;1.50;;;;;;;8.84;53.89;99460.88;5020015;27;103835;-70
2022/02/25 09:30:10;;;;;;;5.37;1.70;;;;;;;8.99;53.64;99462.66;5020370;27;103802;-70
2022/02/25 09:32:38;;;;;;;4.73;1.60;;;;;;;9.24;54.30;99465.66;5021294;27;102978;-70
2022/02/25 09:35:08;;;;;;;5.60;1.60;;;;;;;8.95;53.17;99455.88;5017135;27;102689;-70
2022/02/25 09:37:36;;;;;;;6.07;1.33;;;;;;;9.28;52.94;99459.31;5022120;27;102786;-65
2022/02/25 09:40:08;;;;;;;3.67;1.20;;;;;;;9.53;51.87;99458.78;5020704;27;103219;-65
2022/02/25 09:42:36;;;;;;;5.23;1.10;;;;;;;9.80;52.46;99455.44;5020386;27;102542;-65
2022/02/25 09:45:05;;;;;;;10.50;1.93;;;;;;;9.00;51.14;99453.84;5017484;27;103166;-65
2022/02/25 09:47:35;;;;;;;6.40;1.67;;;;;;;8.57;51.95;99458.75;5020300;27;103706;-65
2022/02/25 09:50:04;;;;;;;4.77;1.53;;;;;;;8.85;51.32;99459.91;5018312;27;103218;-65
2022/02/25 09:52:35;;;;;;;4.97;1.80;;;;;;;9.30;51.28;99467.97;5019282;27;103230;-65
2022/02/25 09:55:07;;;;;;;5.17;1.73;;;;;;;8.31;52.01;99464.50;5020759;27;102840;-65
2022/02/25 09:57:36;;;;;;;4.37;1.73;;;;;;;8.84;51.67;99458.22;5016906;27;104080;-65
2022/02/25 10:00:06;;;;;;;7.67;1.80;;;;;;;9.27;51.52;99463.72;5017333;27;103927;-65
2022/02/25 10:02:42;;;;;;;3.67;1.07;;;;;;;9.08;50.92;99468.31;5017053;27;103167;-65
2022/02/25 10:05:12;;;;;;;5.80;1.63;;;;;;;8.33;50.15;99470.56;5018728;27;102560;-70
2022/02/25 10:07:40;;;;;;;3.43;1.20;;;;;;;8.69;49.48;99466.03;5021601;27;103384;-71
2022/02/25 10:10:10;;;;;;;7.87;1.60;;;;;;;8.27;50.54;99472.59;5020558;27;104039;-70
2022/02/25 10:12:39;;;;;;;3.27;1.30;;;;;;;8.66;50.21;99471.44;5020376;27;104019;-70
2022/02/25 10:15:08;;;;;;;4.43;1.30;;;;;;;8.25;50.06;99480.59;5017717;27;103684;-70
2022/02/25 10:17:37;;;;;;;4.73;1.53;;;;;;;8.69;49.04;99473.91;5013885;27;103773;-70
2022/02/25 10:20:08;;;;;;;4.57;1.73;;;;;;;8.38;50.05;99481.69;5010943;27;104091;-70
2022/02/25 10:22:57;;;;;;;4.57;1.40;;;;;;;9.00;49.02;99470.50;5020971;27;103247;-69
2022/02/25 10:25:33;;;;;;;5.37;1.30;;;;;;;9.28;47.86;99469.84;5016533;27;102714;-70
2022/02/25 10:28:07;;;;;;;5.03;1.27;;;;;;;9.32;48.09;99464.31;5019832;27;103853;-70
2022/02/25 10:30:37;;;;;;;3.43;1.30;;;;;;;9.32;48.68;99466.94;5018983;27;104290;-70
2022/02/25 10:33:06;;;;;;;8.43;1.63;;;;;;;9.46;47.82;99468.81;5019219;27;103282;-70
2022/02/25 10:35:37;;;;;;;6.67;1.50;;;;;;;9.50;48.61;99475.63;5016213;27;103138;-70
2022/02/25 10:38:08;;;;;;;3.23;1.30;;;;;;;10.13;47.45;99462.41;5016428;27;104040;-70
2022/02/25 10:40:37;;;;;;;4.20;1.50;;;;;;;9.69;46.79;99465.75;5014850;27;104272;-70
2022/02/25 10:43:09;;;;;;;5.23;1.17;;;;;;;9.68;47.66;99468.50;5017070;27;103243;-70
2022/02/25 10:45:40;;;;;;;4.27;1.27;;;;;;;8.99;48.38;99463.53;5022193;27;102966;-70
2022/02/25 10:48:11;;;;;;;5.13;1.10;;;;;;;9.21;49.53;99471.09;5019384;27;102680;-70
2022/02/25 10:50:47;;;;;;;5.97;1.87;;;;;;;9.12;49.16;99474.28;5016475;27;103229;-69
2022/02/25 10:53:19;;;;;;;5.07;1.40;;;;;;;8.77;48.68;99477.91;5008223;27;103963;-69
2022/02/25 10:55:49;;;;;;;4.87;1.57;;;;;;;9.26;47.00;99469.09;5016220;27;102928;-64
2022/02/25 10:58:18;;;;;;;5.27;1.33;;;;;;;9.76;46.73;99461.84;5014247;27;102580;-65
2022/02/25 11:01:01;;;;;;;3.27;1.10;;;;;;;10.08;45.54;99461.75;5014320;27;104009;-69
2022/02/25 11:03:30;;;;;;;4.67;1.30;;;;;;;9.43;45.76;99458.44;5011851;27;105642;-69
2022/02/25 11:06:00;;;;;;;5.50;1.50;;;;;;;9.15;46.06;99469.66;5007009;27;102842;-70
2022/02/25 11:08:30;;;;;;;3.67;1.77;;;;;;;9.18;47.40;99473.91;5014307;27;102910;-70
2022/02/25 11:10:59;;;;;;;4.57;1.37;;;;;;;9.58;47.20;99476.06;5013868;27;103357;-70
2022/02/25 11:13:27;;;;;;;7.70;1.93;;;;;;;9.62;46.15;99474.97;5020606;27;103190;-69
2022/02/25 11:15:55;;;;;;;4.37;1.30;;;;;;;10.06;46.15;99474.19;5019713;27;102557;-69
2022/02/25 11:18:27;;;;;;;5.47;1.40;;;;;;;10.15;44.39;99464.00;5021269;27;103514;-69
2022/02/25 11:20:56;;;;;;;6.83;1.60;;;;;;;10.73;44.55;99460.50;5012240;27;103987;-69
2022/02/25 11:23:27;;;;;;;2.37;1.20;;;;;;;10.92;43.44;99459.28;5018679;27;103236;-69
2022/02/25 11:25:55;;;;;;;6.63;1.20;;;;;;;10.08;44.10;99467.88;5020677;27;102641;-70
2022/02/25 11:28:25;;;;;;;3.27;1.30;;;;;;;10.14;43.86;99477.28;5016977;27;102731;-70
2022/02/25 11:31:00;;;;;;;6.70;1.50;;;;;;;9.33;45.39;99470.44;5017412;27;103293;-70
2022/02/25 11:33:30;;;;;;;4.63;1.70;;;;;;;10.63;44.40;99472.59;5018635;27;103295;-70
2022/02/25 11:36:00;;;;;;;6.63;1.50;;;;;;;9.95;43.77;99468.69;5025514;27;102652;-70
2022/02/25 11:38:33;;;;;;;3.77;1.50;;;;;;;10.32;44.79;99463.00;5016762;27;102773;-66
2022/02/25 11:41:03;;;;;;;4.13;1.10;;;;;;;9.98;45.34;99464.09;5020626;27;104173;-70
2022/02/25 11:43:47;;;;;;;6.20;1.77;;;;;;;11.00;44.81;99457.00;5019279;27;104161;-70
2022/02/25 11:46:23;;;;;;;3.47;1.30;;;;;;;10.76;43.11;99455.88;5015846;27;102666;-70
2022/02/25 11:48:53;;;;;;;4.73;1.30;;;;;;;9.84;45.66;99470.16;5024910;27;104047;-70
2022/02/25 11:51:29;;;;;;;4.80;1.40;;;;;;;9.53;45.64;99457.00;5019895;27;103346;-69
2022/02/25 11:54:28;;;;;;;3.73;1.47;;;;;;;9.75;45.52;99454.84;5013993;27;103193;-69